createdAt,value
2022-12-04T00:02:18.708Z,16.73
2022-12-04T00:04:45.337Z,17.15
2022-12-04T00:07:11.976Z,17.92
2022-12-04T00:09:38.498Z,18.48
2022-12-04T00:12:05.173Z,18.23
2022-12-04T00:14:31.740Z,18.95
2022-12-04T00:16:58.760Z,20.40
2022-12-04T00:19:25.381Z,22.45
2022-12-04T00:21:51.984Z,24.38
2022-12-04T00:24:18.551Z,24.83
2022-12-04T00:26:45.101Z,26.50
2022-12-04T00:29:11.726Z,24.75
2022-12-04T00:31:39.990Z,26.48
2022-12-04T00:34:08.243Z,28.25
2022-12-04T00:36:35.007Z,27.60
2022-12-04T00:39:02.012Z,29.02
2022-12-04T00:41:31.311Z,28.58
2022-12-04T00:43:58.106Z,27.58
2022-12-04T00:46:24.756Z,28.58
2022-12-04T00:48:51.964Z,28.48
2022-12-04T00:51:21.737Z,27.83
2022-12-04T00:53:48.814Z,29.92
2022-12-04T00:56:27.055Z,27.08
2022-12-04T00:58:56.531Z,28.77
2022-12-04T01:01:24.195Z,27.42
2022-12-04T01:03:52.251Z,27.25
2022-12-04T01:06:23.519Z,29.02
2022-12-04T01:08:51.784Z,28.02
2022-12-04T01:11:19.610Z,27.02
2022-12-04T01:13:46.883Z,26.52
2022-12-04T01:16:22.865Z,25.50
2022-12-04T01:18:50.493Z,27.45
2022-12-04T01:21:18.362Z,27.10
2022-12-04T01:23:45.158Z,26.35
2022-12-04T01:26:12.460Z,27.17
2022-12-04T01:28:39.560Z,27.00
2022-12-04T01:31:08.604Z,26.90
2022-12-04T01:33:36.514Z,27.05
2022-12-04T01:36:06.134Z,25.25
2022-12-04T01:38:34.467Z,23.98
2022-12-04T01:41:00.981Z,25.30
2022-12-04T01:43:30.938Z,25.92
2022-12-04T01:45:59.310Z,24.13
2022-12-04T01:48:38.135Z,27.45
2022-12-04T01:51:10.616Z,23.63
2022-12-04T01:53:40.052Z,25.25
2022-12-04T01:56:07.308Z,25.60
2022-12-04T01:58:40.929Z,23.85
2022-12-04T02:01:09.562Z,25.10
2022-12-04T02:03:39.128Z,23.75
2022-12-04T02:06:07.092Z,24.60
2022-12-04T02:08:35.137Z,24.63
2022-12-04T02:11:13.748Z,24.13
2022-12-04T02:13:49.141Z,24.70
2022-12-04T02:16:36.863Z,26.00
2022-12-04T02:19:13.451Z,25.90
2022-12-04T02:21:46.083Z,25.38
2022-12-04T02:24:18.456Z,24.77
2022-12-04T02:26:53.162Z,24.55
2022-12-04T02:31:53.393Z,24.85
2022-12-04T02:34:34.914Z,24.17
2022-12-04T02:37:08.607Z,24.60
2022-12-04T02:39:41.440Z,24.40
2022-12-04T02:42:15.100Z,25.13
2022-12-04T02:44:54.582Z,24.27
2022-12-04T02:47:23.893Z,23.65
2022-12-04T02:49:55.774Z,23.20
2022-12-04T02:52:28.358Z,24.67
2022-12-04T02:55:01.085Z,23.08
2022-12-04T02:57:35.536Z,22.50
2022-12-04T03:00:08.816Z,23.95
2022-12-04T03:02:43.815Z,23.30
2022-12-04T03:05:15.719Z,22.08
2022-12-04T03:07:59.226Z,21.55
2022-12-04T03:10:35.089Z,22.05
2022-12-04T03:13:09.688Z,21.90
2022-12-04T03:15:54.072Z,22.25
2022-12-04T03:18:38.644Z,22.65
2022-12-04T03:21:11.249Z,22.08
2022-12-04T03:23:44.553Z,22.98
2022-12-04T03:26:22.779Z,20.70
2022-12-04T03:28:58.493Z,23.50
2022-12-04T03:31:50.650Z,21.20
2022-12-04T03:34:27.418Z,21.38
2022-12-04T03:36:58.982Z,21.73
2022-12-04T03:39:44.806Z,22.02
2022-12-04T03:42:27.524Z,21.63
2022-12-04T03:45:17.839Z,22.25
2022-12-04T03:47:57.200Z,21.20
2022-12-04T03:50:39.800Z,20.20
2022-12-04T03:53:23.145Z,20.02
2022-12-04T03:55:58.595Z,21.95
2022-12-04T03:58:34.753Z,21.08
2022-12-04T04:01:05.243Z,20.33
2022-12-04T04:03:35.744Z,21.35
2022-12-04T04:06:08.844Z,20.55
2022-12-04T04:08:38.876Z,21.77
2022-12-04T04:11:11.797Z,20.95
2022-12-04T04:14:06.557Z,19.27
2022-12-04T04:16:56.536Z,20.33
2022-12-04T04:19:47.039Z,20.10
2022-12-04T04:22:35.468Z,21.05
2022-12-04T04:25:08.119Z,19.98
2022-12-04T04:27:34.842Z,20.17
2022-12-04T04:30:01.872Z,21.23
2022-12-04T04:32:46.148Z,19.98
2022-12-04T04:35:19.536Z,20.35
2022-12-04T04:38:07.483Z,19.25
2022-12-04T04:40:36.662Z,20.10
2022-12-04T04:43:25.193Z,20.63
2022-12-04T04:45:58.051Z,21.48
2022-12-04T04:48:38.298Z,20.60
2022-12-04T04:51:05.853Z,21.05
2022-12-04T04:53:39.445Z,20.73
2022-12-04T04:56:06.981Z,20.50
2022-12-04T04:58:34.007Z,19.75
2022-12-04T05:01:07.421Z,20.55
2022-12-04T05:03:35.121Z,19.65
2022-12-04T05:06:02.000Z,20.50
2022-12-04T05:08:28.757Z,20.67
2022-12-04T05:10:55.363Z,20.95
2022-12-04T05:13:23.041Z,20.48
2022-12-04T05:15:57.625Z,20.50
2022-12-04T05:18:24.286Z,20.05
2022-12-04T05:20:50.810Z,19.52
2022-12-04T05:23:17.550Z,20.33
2022-12-04T05:25:45.591Z,20.73
2022-12-04T05:28:12.087Z,21.65
2022-12-04T05:30:38.576Z,21.13
2022-12-04T05:33:05.302Z,20.50
2022-12-04T05:35:31.997Z,20.02
2022-12-04T05:37:58.659Z,19.15
2022-12-04T05:40:25.196Z,20.92
2022-12-04T05:42:51.712Z,20.38
2022-12-04T05:45:18.348Z,20.73
2022-12-04T05:47:45.085Z,21.13
2022-12-04T05:50:13.105Z,19.15
2022-12-04T05:52:39.598Z,19.58
2022-12-04T05:55:06.422Z,19.08
2022-12-04T05:57:32.892Z,19.50
2022-12-04T05:59:59.381Z,19.45
2022-12-04T06:02:25.976Z,18.65
2022-12-04T06:04:52.647Z,20.40
2022-12-04T06:07:19.549Z,18.05
2022-12-04T06:09:46.144Z,18.52
2022-12-04T06:12:12.704Z,16.42
2022-12-04T06:14:39.928Z,19.38
2022-12-04T06:17:07.019Z,17.83
2022-12-04T06:19:33.618Z,19.33
2022-12-04T06:22:00.404Z,16.88
2022-12-04T06:24:27.017Z,17.40
2022-12-04T06:29:46.718Z,17.67
2022-12-04T06:32:19.517Z,16.45
2022-12-04T06:34:52.729Z,16.95
2022-12-04T06:37:20.758Z,18.35
2022-12-04T06:39:47.327Z,18.13
2022-12-04T06:42:13.897Z,17.58
2022-12-04T06:44:40.409Z,17.83
2022-12-04T06:47:06.904Z,17.65
2022-12-04T06:49:33.732Z,16.98
2022-12-04T06:52:00.365Z,17.27
2022-12-04T06:54:26.880Z,17.98
2022-12-04T06:56:53.402Z,17.00
2022-12-04T06:59:19.887Z,17.73
2022-12-04T07:01:46.389Z,16.90
2022-12-04T07:04:13.044Z,18.38
2022-12-04T07:06:40.467Z,17.92
2022-12-04T07:09:13.312Z,18.58
2022-12-04T07:11:40.651Z,18.20
2022-12-04T07:14:07.325Z,16.73
2022-12-04T07:16:40.338Z,16.65
2022-12-04T07:19:09.171Z,17.00
2022-12-04T07:21:35.651Z,17.13
2022-12-04T07:24:02.531Z,18.10
2022-12-04T07:26:30.613Z,17.08
2022-12-04T07:28:58.586Z,18.17
2022-12-04T07:31:26.769Z,16.88
2022-12-04T07:33:54.545Z,15.93
2022-12-04T07:36:23.794Z,16.92
2022-12-04T07:38:51.121Z,16.95
2022-12-04T07:41:19.168Z,16.92
2022-12-04T07:43:46.326Z,16.80
2022-12-04T07:46:16.288Z,16.75
2022-12-04T07:48:43.454Z,17.60
2022-12-04T07:51:19.743Z,16.80
2022-12-04T07:53:46.981Z,16.95
2022-12-04T07:56:15.179Z,16.52
2022-12-04T07:58:42.230Z,16.75
2022-12-04T08:01:21.491Z,17.27
2022-12-04T08:03:50.080Z,16.38
2022-12-04T08:06:18.557Z,17.15
2022-12-04T08:08:45.768Z,17.52
2022-12-04T08:11:14.612Z,17.60
2022-12-04T08:13:41.148Z,19.05
2022-12-04T08:16:10.165Z,16.58
2022-12-04T08:18:36.984Z,16.85
2022-12-04T08:21:09.666Z,17.45
2022-12-04T08:23:37.278Z,17.45
2022-12-04T08:26:04.489Z,17.45
2022-12-04T08:28:31.840Z,18.55
2022-12-04T08:31:12.974Z,18.92
2022-12-04T08:33:41.020Z,18.02
2022-12-04T08:36:09.201Z,17.67
2022-12-04T08:38:36.260Z,16.83
2022-12-04T08:41:04.405Z,16.70
2022-12-04T08:43:31.178Z,16.88
2022-12-04T08:46:06.324Z,17.77
2022-12-04T08:48:33.636Z,16.55
2022-12-04T08:51:01.676Z,15.73
2022-12-04T08:53:28.284Z,16.80
2022-12-04T08:55:54.753Z,16.20
2022-12-04T08:58:22.402Z,17.55
2022-12-04T09:00:49.393Z,16.48
2022-12-04T09:03:19.179Z,16.50
2022-12-04T09:05:46.344Z,17.08
2022-12-04T09:08:14.635Z,17.15
2022-12-04T09:10:42.248Z,15.35
2022-12-04T09:13:09.039Z,16.40
2022-12-04T09:15:39.276Z,16.95
2022-12-04T09:18:06.348Z,16.85
2022-12-04T09:20:33.148Z,16.83
2022-12-04T09:23:04.472Z,16.73
2022-12-04T09:25:34.574Z,16.40
2022-12-04T09:28:01.086Z,16.40
2022-12-04T09:30:27.573Z,16.88
2022-12-04T09:32:54.611Z,16.38
2022-12-04T09:35:21.112Z,16.73
2022-12-04T09:37:47.599Z,17.00
2022-12-04T09:41:00.782Z,16.42
2022-12-04T09:43:49.535Z,14.80
2022-12-04T09:46:30.108Z,17.27
2022-12-04T09:48:59.562Z,16.30
2022-12-04T09:51:26.713Z,18.42
2022-12-04T09:54:01.176Z,18.27
2022-12-04T09:56:29.977Z,18.27
2022-12-04T09:58:59.201Z,17.95
2022-12-04T10:01:59.892Z,24.92
2022-12-04T10:04:26.974Z,17.88
2022-12-04T10:07:16.644Z,16.17
2022-12-04T10:09:58.193Z,17.75
2022-12-04T10:12:36.350Z,20.63
2022-12-04T10:15:40.487Z,16.95
2022-12-04T10:18:43.462Z,16.02
2022-12-04T10:21:32.994Z,17.02
2022-12-04T10:24:18.022Z,15.20
2022-12-04T10:29:25.860Z,15.82
2022-12-04T10:31:55.654Z,16.40
2022-12-04T10:34:31.792Z,16.73
2022-12-04T10:37:03.520Z,19.02
2022-12-04T10:39:43.937Z,18.95
2022-12-04T10:42:36.140Z,15.65
2022-12-04T10:45:05.316Z,15.88
2022-12-04T10:47:32.723Z,14.82
2022-12-04T10:50:03.223Z,16.10
2022-12-04T10:52:29.766Z,17.48
2022-12-04T10:55:00.637Z,16.42
2022-12-04T10:57:40.274Z,15.82
2022-12-04T11:00:30.345Z,16.80
2022-12-04T11:03:01.049Z,16.42
2022-12-04T11:05:30.416Z,17.77
2022-12-04T11:07:59.059Z,21.17
2022-12-04T11:10:32.023Z,16.15
2022-12-04T11:13:06.363Z,18.13
2022-12-04T11:15:42.468Z,18.05
2022-12-04T11:18:15.868Z,18.60
2022-12-04T11:20:50.812Z,18.25
2022-12-04T11:23:18.196Z,18.38
2022-12-04T11:25:51.051Z,16.63
2022-12-04T11:28:41.335Z,17.70
2022-12-04T11:31:09.411Z,16.42
2022-12-04T11:33:50.030Z,14.95
2022-12-04T11:36:22.479Z,16.27
2022-12-04T11:38:51.229Z,15.73
2022-12-04T11:41:29.758Z,16.48
2022-12-04T11:44:00.357Z,15.73
2022-12-04T11:46:31.237Z,14.88
2022-12-04T11:48:58.105Z,15.98
2022-12-04T11:51:27.537Z,15.75
2022-12-04T11:54:43.568Z,16.45
2022-12-04T11:57:28.358Z,15.65
2022-12-04T12:00:20.888Z,15.85
2022-12-04T12:03:09.286Z,14.73
2022-12-04T12:05:53.692Z,15.93
2022-12-04T12:08:20.147Z,14.95
2022-12-04T12:10:49.581Z,15.15
2022-12-04T12:13:22.161Z,14.88
2022-12-04T12:16:03.972Z,14.13
2022-12-04T12:19:00.838Z,14.05
2022-12-04T12:22:06.991Z,12.95
2022-12-04T12:24:58.374Z,12.95
2022-12-04T12:27:44.867Z,17.08
2022-12-04T12:30:24.370Z,14.50
2022-12-04T12:33:20.057Z,13.90
2022-12-04T12:36:08.622Z,13.80
2022-12-04T12:38:41.548Z,14.23
2022-12-04T12:41:16.241Z,14.50
2022-12-04T12:46:14.762Z,17.05
2022-12-04T12:49:01.086Z,18.65
2022-12-04T12:51:39.781Z,17.65
2022-12-04T12:54:28.456Z,17.20
2022-12-04T12:57:02.784Z,16.92
2022-12-04T12:59:30.124Z,16.50
2022-12-04T13:02:06.022Z,15.32
2022-12-04T13:04:40.548Z,15.65
2022-12-04T13:07:19.028Z,14.88
2022-12-04T13:10:09.521Z,13.48
2022-12-04T13:12:51.385Z,13.75
2022-12-04T13:15:21.713Z,13.75
2022-12-04T13:17:51.320Z,13.63
2022-12-04T13:20:30.646Z,13.38
2022-12-04T13:23:39.085Z,12.63
2022-12-04T13:26:14.488Z,14.55
2022-12-04T13:29:09.315Z,16.08
2022-12-04T13:31:55.133Z,15.40
2022-12-04T13:34:24.699Z,15.73
2022-12-04T13:37:16.605Z,14.75
2022-12-04T13:39:55.385Z,14.65
2022-12-04T13:42:25.735Z,14.57
2022-12-04T13:45:02.700Z,15.93
2022-12-04T13:47:32.798Z,14.20
2022-12-04T13:50:28.042Z,14.20
2022-12-04T13:52:55.226Z,14.45
2022-12-04T13:55:39.387Z,13.38
2022-12-04T13:58:27.568Z,14.80
2022-12-04T14:01:13.622Z,13.52
2022-12-04T14:03:49.727Z,13.32
2022-12-04T14:06:34.075Z,12.75
2022-12-04T14:09:04.590Z,12.00
2022-12-04T14:11:45.154Z,11.50
2022-12-04T14:14:37.980Z,10.60
2022-12-04T14:17:05.195Z,10.25
2022-12-04T14:19:38.707Z,11.05
2022-12-04T14:22:05.219Z,11.95
2022-12-04T14:24:36.448Z,11.07
2022-12-04T14:27:30.520Z,10.75
2022-12-04T14:29:58.668Z,10.82
2022-12-04T14:32:30.739Z,11.30
2022-12-04T14:34:58.200Z,10.50
2022-12-04T14:37:36.352Z,10.02
2022-12-04T14:40:07.017Z,9.65
2022-12-04T14:42:36.629Z,9.80
2022-12-04T14:45:17.292Z,9.15
2022-12-04T14:48:16.975Z,9.07
2022-12-04T14:50:55.575Z,8.48
2022-12-04T14:53:35.253Z,9.77
2022-12-04T14:56:10.472Z,8.88
2022-12-04T14:58:39.665Z,9.45
2022-12-04T15:01:28.350Z,8.95
2022-12-04T15:03:59.066Z,9.45
2022-12-04T15:06:28.591Z,8.23
2022-12-04T15:09:19.452Z,7.90
2022-12-04T15:12:13.200Z,7.28
2022-12-04T15:14:44.839Z,7.43
2022-12-04T15:17:12.303Z,8.65
2022-12-04T15:19:40.030Z,9.18
2022-12-04T15:22:28.960Z,9.27
2022-12-04T15:24:56.543Z,9.43
2022-12-04T15:27:31.938Z,8.27
2022-12-04T15:30:00.497Z,8.93
2022-12-04T15:32:28.823Z,8.80
2022-12-04T15:35:03.246Z,8.70
2022-12-04T15:37:31.489Z,8.45
2022-12-04T15:39:59.160Z,8.85
2022-12-04T15:42:28.608Z,9.70
2022-12-04T15:45:01.081Z,10.40
2022-12-04T15:47:38.410Z,11.43
2022-12-04T15:50:15.088Z,10.13
2022-12-04T15:52:54.155Z,14.40
2022-12-04T15:55:23.141Z,9.98
2022-12-04T15:57:56.168Z,10.73
2022-12-04T16:00:28.129Z,11.07
2022-12-04T16:02:55.046Z,11.07
2022-12-04T16:05:21.502Z,11.25
2022-12-04T16:07:58.149Z,11.15
2022-12-04T16:10:31.427Z,9.60
2022-12-04T16:13:00.645Z,11.93
2022-12-04T16:15:42.700Z,10.18
2022-12-04T16:18:13.474Z,11.00
2022-12-04T16:20:40.946Z,11.45
2022-12-04T16:23:07.445Z,13.10
2022-12-04T16:25:33.929Z,15.82
2022-12-04T16:28:01.522Z,17.27
2022-12-04T16:30:31.764Z,17.73
2022-12-04T16:32:58.304Z,21.92
2022-12-04T16:35:24.878Z,17.42
2022-12-04T16:37:51.667Z,15.02
2022-12-04T16:40:18.277Z,14.55
2022-12-04T16:42:44.865Z,17.20
2022-12-04T16:45:33.043Z,19.52
2022-12-04T16:47:59.638Z,20.88
2022-12-04T16:50:27.312Z,21.98
2022-12-04T16:52:54.399Z,20.67
2022-12-04T16:55:32.574Z,21.27
2022-12-04T16:57:59.428Z,18.88
2022-12-04T17:00:26.054Z,19.35
2022-12-04T17:02:53.363Z,17.65
2022-12-04T17:05:23.351Z,16.77
2022-12-04T17:07:50.144Z,16.45
2022-12-04T17:10:22.006Z,17.50
2022-12-04T17:12:53.443Z,17.35
2022-12-04T17:15:20.048Z,18.55
2022-12-04T17:17:46.514Z,17.83
2022-12-04T17:20:16.127Z,18.17
2022-12-04T17:22:42.876Z,17.98
2022-12-04T17:25:11.117Z,18.15
2022-12-04T17:27:38.012Z,16.48
2022-12-04T17:30:06.092Z,17.63
2022-12-04T17:32:34.820Z,20.00
2022-12-04T17:35:02.340Z,17.20
2022-12-04T17:37:28.829Z,18.25
2022-12-04T17:39:55.355Z,21.75
2022-12-04T17:42:22.057Z,20.85
2022-12-04T17:44:48.844Z,30.90
2022-12-04T17:47:15.730Z,29.63
2022-12-04T17:49:42.633Z,29.90
2022-12-04T17:52:09.189Z,25.88
2022-12-04T17:54:36.015Z,27.02
2022-12-04T17:57:02.787Z,27.75
2022-12-04T17:59:29.331Z,29.05
2022-12-04T18:01:56.356Z,26.40
2022-12-04T18:04:22.980Z,26.77
2022-12-04T18:06:49.460Z,25.92
2022-12-04T18:09:17.224Z,25.73
2022-12-04T18:11:50.831Z,26.58
2022-12-04T18:14:22.079Z,27.33
2022-12-04T18:16:53.128Z,27.45
2022-12-04T18:19:21.819Z,28.10
2022-12-04T18:21:48.469Z,30.88
2022-12-04T18:24:15.794Z,29.88
2022-12-04T18:26:45.257Z,27.23
2022-12-04T18:29:20.151Z,25.80
2022-12-04T18:31:47.325Z,25.45
2022-12-04T18:34:14.515Z,24.73
2022-12-04T18:36:42.777Z,26.40
2022-12-04T18:39:13.315Z,27.10
2022-12-04T18:41:40.125Z,29.52
2022-12-04T18:44:06.893Z,31.05
2022-12-04T18:46:33.540Z,32.45
2022-12-04T18:49:01.032Z,31.95
2022-12-04T18:51:35.386Z,28.65
2022-12-04T18:54:05.550Z,29.95
2022-12-04T18:56:33.733Z,28.42
2022-12-04T18:59:03.237Z,28.48
2022-12-04T19:01:31.518Z,29.90
2022-12-04T19:04:02.502Z,31.48
2022-12-04T19:06:41.334Z,32.35
2022-12-04T19:09:11.659Z,33.15
2022-12-04T19:11:39.223Z,34.83
2022-12-04T19:14:16.184Z,33.13
2022-12-04T19:16:47.799Z,32.70
2022-12-04T19:19:17.869Z,30.10
2022-12-04T19:21:44.555Z,26.20
2022-12-04T19:24:11.800Z,28.95
2022-12-04T19:26:39.072Z,31.60
2022-12-04T19:29:07.440Z,33.08
2022-12-04T19:31:36.076Z,33.45
2022-12-04T19:34:03.965Z,34.53
2022-12-04T19:36:31.957Z,33.08
2022-12-04T19:38:59.707Z,29.73
2022-12-04T19:41:31.002Z,27.63
2022-12-04T19:44:00.272Z,27.67
2022-12-04T19:46:30.259Z,29.50
2022-12-04T19:49:03.691Z,30.13
2022-12-04T19:51:34.349Z,35.65
2022-12-04T19:54:01.927Z,32.88
2022-12-04T19:56:30.757Z,32.92
2022-12-04T19:59:00.210Z,32.63
2022-12-04T20:01:29.385Z,31.52
2022-12-04T20:03:56.915Z,32.58
2022-12-04T20:06:26.765Z,32.67
2022-12-04T20:08:58.925Z,36.70
2022-12-04T20:11:26.726Z,36.22
2022-12-04T20:13:55.600Z,36.42
2022-12-04T20:16:24.220Z,36.35
2022-12-04T20:18:51.000Z,38.10
2022-12-04T20:21:18.838Z,41.45
2022-12-04T20:23:49.486Z,38.78
2022-12-04T20:26:23.452Z,40.35
2022-12-04T20:28:50.368Z,46.15
2022-12-04T20:31:26.185Z,43.78
2022-12-04T20:33:54.560Z,42.22
2022-12-04T20:36:23.352Z,40.33
2022-12-04T20:38:52.303Z,38.65
2022-12-04T20:41:18.903Z,37.92
2022-12-04T20:43:47.327Z,38.50
2022-12-04T20:46:22.594Z,40.28
2022-12-04T20:48:50.959Z,37.03
2022-12-04T20:51:19.538Z,36.90
2022-12-04T20:53:47.268Z,36.63
2022-12-04T20:56:14.251Z,35.28
2022-12-04T20:58:40.975Z,35.65
2022-12-04T21:01:09.321Z,33.17
2022-12-04T21:03:35.949Z,35.03
2022-12-04T21:06:02.639Z,36.15
2022-12-04T21:08:48.054Z,38.53
2022-12-04T21:11:14.545Z,40.05
2022-12-04T21:13:59.536Z,38.88
2022-12-04T21:16:26.121Z,38.10
2022-12-04T21:18:52.622Z,36.15
2022-12-04T21:21:19.148Z,35.28
2022-12-04T21:23:45.819Z,35.65
2022-12-04T21:26:12.667Z,38.15
2022-12-04T21:28:39.417Z,35.70
2022-12-04T21:31:07.379Z,35.70
2022-12-04T21:33:34.694Z,37.33
2022-12-04T21:36:07.629Z,34.45
2022-12-04T21:38:39.130Z,35.47
2022-12-04T21:41:07.784Z,29.70
2022-12-04T21:43:35.856Z,31.20
2022-12-04T21:46:09.054Z,30.15
2022-12-04T21:48:37.186Z,30.92
2022-12-04T21:51:16.881Z,30.30
2022-12-04T21:53:54.971Z,31.35
2022-12-04T21:56:22.680Z,30.70
2022-12-04T21:58:49.692Z,32.65
2022-12-04T22:01:17.749Z,30.73
2022-12-04T22:03:44.607Z,30.73
2022-12-04T22:06:11.313Z,31.90
2022-12-04T22:08:40.652Z,31.65
2022-12-04T22:11:09.409Z,32.58
2022-12-04T22:13:41.249Z,33.00
2022-12-04T22:16:15.212Z,33.25
2022-12-04T22:18:42.048Z,33.58
2022-12-04T22:21:11.610Z,34.83
2022-12-04T22:23:38.817Z,35.53
2022-12-04T22:26:10.739Z,33.90
2022-12-04T22:28:38.633Z,34.72
2022-12-04T22:31:14.046Z,32.97
2022-12-04T22:33:41.996Z,32.65
2022-12-04T22:36:11.201Z,30.63
2022-12-04T22:38:52.573Z,33.60
2022-12-04T22:41:25.878Z,31.65
2022-12-04T22:43:52.488Z,33.35
2022-12-04T22:46:19.341Z,37.38
2022-12-04T22:48:46.586Z,37.70
2022-12-04T22:51:16.077Z,37.85
2022-12-04T22:53:48.650Z,37.75
2022-12-04T22:56:21.106Z,38.30
2022-12-04T22:58:47.945Z,37.97
2022-12-04T23:01:23.401Z,35.78
2022-12-04T23:03:50.998Z,33.25
2022-12-04T23:06:19.595Z,34.60
2022-12-04T23:08:46.617Z,32.38
2022-12-04T23:11:17.622Z,32.83
2022-12-04T23:13:49.677Z,32.47
2022-12-04T23:16:20.074Z,31.50
2022-12-04T23:18:47.468Z,32.58
2022-12-04T23:21:15.781Z,32.72
2022-12-04T23:23:44.457Z,30.85
2022-12-04T23:26:21.439Z,28.77
2022-12-04T23:28:48.304Z,28.02
2022-12-04T23:31:15.563Z,27.15
2022-12-04T23:33:42.512Z,26.80
2022-12-04T23:36:11.765Z,25.52
2022-12-04T23:38:39.894Z,25.30
2022-12-04T23:41:14.541Z,28.85
2022-12-04T23:43:42.281Z,26.48
2022-12-04T23:46:11.705Z,26.95
2022-12-04T23:48:43.536Z,25.33
2022-12-04T23:51:12.992Z,25.75
2022-12-04T23:53:39.765Z,26.77
2022-12-04T23:56:14.080Z,26.73
2022-12-04T23:58:41.453Z,25.05
